KSKF/SKF METAR and TAF weather

Enter ICAO airport designator
Station Type Date Time Source
KSKF METAR 2018/12/11 19:56 UTC NOAA

KSKF 111956Z AUTO 18005KT 10SM CLR 14/05 A3026 RMK AO2 SLP249 T01390045


Station Type Date Time Source
KSKF Decoded METAR 2018/12/11 19:56 UTC NOAA

Kelly Air Force Base, TX, United States (KSKF) 29-23N 098-35W
Dec 11, 2018 - 02:56 PM EST / 2018.12.11 1956 UTC
Wind: from the S (180 degrees) at 6 MPH (5 KT):0
Visibility: 10 mile(s):0
Sky conditions: clear
Temperature: 57.0 F (13.9 C)
Dew Point: 40.1 F (4.5 C)
Relative Humidity: 53%
Pressure (altimeter): 30.26 in. Hg (1024 hPa)
ob: KSKF 111956Z AUTO 18005KT 10SM CLR 14/05 A3026 RMK AO2 SLP249 T01390045
cycle: 20

Station Type Date Time Source
KSKF TAF 2018/12/11 18:18 UTC NOAA

TAF KSKF 111800Z 1118/1224 17010G15KT 9999 FEW030 BKN250 QNH3022INS
BECMG 1123/1124 16009KT 9999 SCT020 BKN250 QNH3009INS
BECMG 1209/1210 17007KT 9999 BKN015 BKN250 QNH3005INS
BECMG 1216/1217 16009KT 9999 BKN020 BKN250 QNH3000INS
BECMG 1218/1219 16009KT 9999 BKN030 BKN250 QNH2998INS TX17/1121Z TN10/1210Z


Example: see airport list